sensor_id;sensor_type;location;lat;lon;timestamp;temperature;humidity
29939;DHT22;16799;50.844;5.304;2023-07-13T00:02:24;15.90;99.90
29939;DHT22;16799;50.844;5.304;2023-07-13T00:04:50;15.80;99.90
29939;DHT22;16799;50.844;5.304;2023-07-13T00:07:16;15.70;99.90
29939;DHT22;16799;50.844;5.304;2023-07-13T00:09:48;15.70;99.90
29939;DHT22;16799;50.844;5.304;2023-07-13T00:14:50;15.70;99.90
29939;DHT22;16799;50.844;5.304;2023-07-13T00:17:16;15.60;99.90
29939;DHT22;16799;50.844;5.304;2023-07-13T00:19:41;15.60;99.90
29939;DHT22;16799;50.844;5.304;2023-07-13T00:22:07;15.60;99.90
29939;DHT22;16799;50.844;5.304;2023-07-13T00:24:33;15.60;99.90
29939;DHT22;16799;50.844;5.304;2023-07-13T00:26:58;15.60;99.90
29939;DHT22;16799;50.844;5.304;2023-07-13T00:29:26;15.60;99.90
29939;DHT22;16799;50.844;5.304;2023-07-13T00:31:51;15.60;99.90
29939;DHT22;16799;50.844;5.304;2023-07-13T00:34:17;15.60;99.90
29939;DHT22;16799;50.844;5.304;2023-07-13T00:36:43;15.60;99.90
29939;DHT22;16799;50.844;5.304;2023-07-13T00:39:08;15.60;99.90
29939;DHT22;16799;50.844;5.304;2023-07-13T00:41:34;15.70;99.90
29939;DHT22;16799;50.844;5.304;2023-07-13T00:44:02;15.60;99.90
29939;DHT22;16799;50.844;5.304;2023-07-13T00:46:33;15.60;99.90
29939;DHT22;16799;50.844;5.304;2023-07-13T00:49:02;15.60;99.90
29939;DHT22;16799;50.844;5.304;2023-07-13T00:51:57;15.50;99.90
29939;DHT22;16799;50.844;5.304;2023-07-13T00:54:30;15.60;99.90
29939;DHT22;16799;50.844;5.304;2023-07-13T00:57:00;15.50;99.90
29939;DHT22;16799;50.844;5.304;2023-07-13T00:59:26;15.60;99.90
29939;DHT22;16799;50.844;5.304;2023-07-13T01:01:53;15.60;99.90
29939;DHT22;16799;50.844;5.304;2023-07-13T01:04:20;15.50;99.90
29939;DHT22;16799;50.844;5.304;2023-07-13T01:06:46;15.50;99.90
29939;DHT22;16799;50.844;5.304;2023-07-13T01:09:13;15.50;99.90
29939;DHT22;16799;50.844;5.304;2023-07-13T01:11:40;15.50;99.90
29939;DHT22;16799;50.844;5.304;2023-07-13T01:14:07;15.50;99.90
29939;DHT22;16799;50.844;5.304;2023-07-13T01:16:34;15.50;99.90
29939;DHT22;16799;50.844;5.304;2023-07-13T01:19:01;15.30;99.90
29939;DHT22;16799;50.844;5.304;2023-07-13T01:21:31;15.30;99.90
29939;DHT22;16799;50.844;5.304;2023-07-13T01:23:58;15.30;99.90
29939;DHT22;16799;50.844;5.304;2023-07-13T01:26:23;15.40;99.90
29939;DHT22;16799;50.844;5.304;2023-07-13T01:28:49;15.30;99.90
29939;DHT22;16799;50.844;5.304;2023-07-13T01:31:15;15.30;99.90
29939;DHT22;16799;50.844;5.304;2023-07-13T01:33:41;15.30;99.90
29939;DHT22;16799;50.844;5.304;2023-07-13T01:36:08;15.30;99.90
29939;DHT22;16799;50.844;5.304;2023-07-13T01:38:35;15.30;99.90
29939;DHT22;16799;50.844;5.304;2023-07-13T01:41:02;15.20;99.90
29939;DHT22;16799;50.844;5.304;2023-07-13T01:43:28;15.10;99.90
29939;DHT22;16799;50.844;5.304;2023-07-13T01:45:53;15.10;99.90
29939;DHT22;16799;50.844;5.304;2023-07-13T01:48:19;14.90;99.90
29939;DHT22;16799;50.844;5.304;2023-07-13T01:50:46;14.90;99.90
29939;DHT22;16799;50.844;5.304;2023-07-13T01:53:12;14.90;99.90
29939;DHT22;16799;50.844;5.304;2023-07-13T01:55:38;14.80;99.90
29939;DHT22;16799;50.844;5.304;2023-07-13T01:58:04;14.70;99.90
29939;DHT22;16799;50.844;5.304;2023-07-13T02:00:30;14.60;99.90
29939;DHT22;16799;50.844;5.304;2023-07-13T02:02:55;14.60;99.90
29939;DHT22;16799;50.844;5.304;2023-07-13T02:05:21;14.60;99.90
29939;DHT22;16799;50.844;5.304;2023-07-13T02:07:47;14.50;99.90
29939;DHT22;16799;50.844;5.304;2023-07-13T02:10:13;14.60;99.90
29939;DHT22;16799;50.844;5.304;2023-07-13T02:12:42;14.50;99.90
29939;DHT22;16799;50.844;5.304;2023-07-13T02:15:09;14.50;99.90
29939;DHT22;16799;50.844;5.304;2023-07-13T02:17:35;14.50;99.90
29939;DHT22;16799;50.844;5.304;2023-07-13T02:20:02;14.40;99.90
29939;DHT22;16799;50.844;5.304;2023-07-13T02:22:29;14.50;99.90
29939;DHT22;16799;50.844;5.304;2023-07-13T02:24:54;14.40;99.90
29939;DHT22;16799;50.844;5.304;2023-07-13T02:27:20;14.40;99.90
29939;DHT22;16799;50.844;5.304;2023-07-13T02:29:46;14.40;99.90
29939;DHT22;16799;50.844;5.304;2023-07-13T02:32:11;14.40;99.90
29939;DHT22;16799;50.844;5.304;2023-07-13T02:34:37;14.40;99.90
29939;DHT22;16799;50.844;5.304;2023-07-13T02:37:03;14.40;99.90
29939;DHT22;16799;50.844;5.304;2023-07-13T02:39:29;14.40;99.90
29939;DHT22;16799;50.844;5.304;2023-07-13T02:41:55;14.40;99.90
29939;DHT22;16799;50.844;5.304;2023-07-13T02:44:20;14.40;99.90
29939;DHT22;16799;50.844;5.304;2023-07-13T02:46:46;14.40;99.90
29939;DHT22;16799;50.844;5.304;2023-07-13T02:49:11;14.40;99.90
29939;DHT22;16799;50.844;5.304;2023-07-13T02:51:37;14.30;99.90
29939;DHT22;16799;50.844;5.304;2023-07-13T02:54:04;14.20;99.90
29939;DHT22;16799;50.844;5.304;2023-07-13T02:56:31;14.20;99.90
29939;DHT22;16799;50.844;5.304;2023-07-13T02:58:57;14.20;99.90
29939;DHT22;16799;50.844;5.304;2023-07-13T03:01:24;14.20;99.90
29939;DHT22;16799;50.844;5.304;2023-07-13T03:03:50;14.10;99.90
29939;DHT22;16799;50.844;5.304;2023-07-13T03:06:17;14.10;99.90
29939;DHT22;16799;50.844;5.304;2023-07-13T03:08:43;14.10;99.90
29939;DHT22;16799;50.844;5.304;2023-07-13T03:11:12;14.10;99.90
29939;DHT22;16799;50.844;5.304;2023-07-13T03:13:40;14.10;99.90
29939;DHT22;16799;50.844;5.304;2023-07-13T03:16:08;14.10;99.90
29939;DHT22;16799;50.844;5.304;2023-07-13T03:18:35;14.20;99.90
29939;DHT22;16799;50.844;5.304;2023-07-13T03:21:00;14.10;99.90
29939;DHT22;16799;50.844;5.304;2023-07-13T03:23:26;14.10;99.90
29939;DHT22;16799;50.844;5.304;2023-07-13T03:26:03;14.10;99.90
29939;DHT22;16799;50.844;5.304;2023-07-13T03:28:29;14.00;99.90
29939;DHT22;16799;50.844;5.304;2023-07-13T03:31:06;14.00;99.90
29939;DHT22;16799;50.844;5.304;2023-07-13T03:33:33;14.00;99.90
29939;DHT22;16799;50.844;5.304;2023-07-13T03:35:58;14.20;99.90
29939;DHT22;16799;50.844;5.304;2023-07-13T03:38:24;14.20;99.90
29939;DHT22;16799;50.844;5.304;2023-07-13T03:40:50;14.20;99.90
29939;DHT22;16799;50.844;5.304;2023-07-13T03:43:16;14.20;99.90
29939;DHT22;16799;50.844;5.304;2023-07-13T03:45:41;14.30;99.90
29939;DHT22;16799;50.844;5.304;2023-07-13T03:48:07;14.30;99.90
29939;DHT22;16799;50.844;5.304;2023-07-13T03:50:32;14.30;99.90
29939;DHT22;16799;50.844;5.304;2023-07-13T03:52:59;14.20;99.90
29939;DHT22;16799;50.844;5.304;2023-07-13T03:55:25;14.30;99.90
29939;DHT22;16799;50.844;5.304;2023-07-13T03:57:57;14.50;99.90
29939;DHT22;16799;50.844;5.304;2023-07-13T04:00:24;14.50;99.90
29939;DHT22;16799;50.844;5.304;2023-07-13T04:02:50;14.60;99.90
29939;DHT22;16799;50.844;5.304;2023-07-13T04:05:16;14.70;99.90
29939;DHT22;16799;50.844;5.304;2023-07-13T04:07:41;14.70;99.90
29939;DHT22;16799;50.844;5.304;2023-07-13T04:10:08;14.80;99.90
29939;DHT22;16799;50.844;5.304;2023-07-13T04:12:33;14.90;99.90
29939;DHT22;16799;50.844;5.304;2023-07-13T04:14:59;15.00;99.90
29939;DHT22;16799;50.844;5.304;2023-07-13T04:17:25;15.10;99.90
29939;DHT22;16799;50.844;5.304;2023-07-13T04:19:50;15.00;99.90
29939;DHT22;16799;50.844;5.304;2023-07-13T04:22:16;15.00;99.90
29939;DHT22;16799;50.844;5.304;2023-07-13T04:24:42;15.10;99.90
29939;DHT22;16799;50.844;5.304;2023-07-13T04:27:07;15.20;99.90
29939;DHT22;16799;50.844;5.304;2023-07-13T04:29:33;15.10;99.90
29939;DHT22;16799;50.844;5.304;2023-07-13T04:31:59;15.10;99.90
29939;DHT22;16799;50.844;5.304;2023-07-13T04:34:24;15.10;99.90
29939;DHT22;16799;50.844;5.304;2023-07-13T04:36:50;15.20;99.90
29939;DHT22;16799;50.844;5.304;2023-07-13T04:39:16;15.30;99.90
29939;DHT22;16799;50.844;5.304;2023-07-13T04:41:42;15.40;99.90
29939;DHT22;16799;50.844;5.304;2023-07-13T04:44:07;15.50;99.90
29939;DHT22;16799;50.844;5.304;2023-07-13T04:46:33;15.60;99.90
29939;DHT22;16799;50.844;5.304;2023-07-13T04:48:59;15.60;99.90
29939;DHT22;16799;50.844;5.304;2023-07-13T04:51:25;15.70;99.90
29939;DHT22;16799;50.844;5.304;2023-07-13T04:53:51;15.60;99.90
29939;DHT22;16799;50.844;5.304;2023-07-13T04:56:17;15.60;99.90
29939;DHT22;16799;50.844;5.304;2023-07-13T04:58:43;15.60;99.90
29939;DHT22;16799;50.844;5.304;2023-07-13T05:01:09;15.60;99.90
29939;DHT22;16799;50.844;5.304;2023-07-13T05:03:35;15.60;99.90
29939;DHT22;16799;50.844;5.304;2023-07-13T05:06:06;15.60;99.90
29939;DHT22;16799;50.844;5.304;2023-07-13T05:08:32;15.60;99.90
29939;DHT22;16799;50.844;5.304;2023-07-13T05:11:00;15.80;99.90
29939;DHT22;16799;50.844;5.304;2023-07-13T05:13:26;15.70;99.90
29939;DHT22;16799;50.844;5.304;2023-07-13T05:16:03;15.70;99.90
29939;DHT22;16799;50.844;5.304;2023-07-13T05:18:30;15.80;99.90
29939;DHT22;16799;50.844;5.304;2023-07-13T05:21:02;15.90;99.90
29939;DHT22;16799;50.844;5.304;2023-07-13T05:23:30;15.90;99.90
29939;DHT22;16799;50.844;5.304;2023-07-13T05:25:56;15.90;99.90
29939;DHT22;16799;50.844;5.304;2023-07-13T05:28:22;15.90;99.90
29939;DHT22;16799;50.844;5.304;2023-07-13T05:30:49;15.90;99.90
29939;DHT22;16799;50.844;5.304;2023-07-13T05:33:14;16.00;99.90
29939;DHT22;16799;50.844;5.304;2023-07-13T05:35:40;16.10;99.90
29939;DHT22;16799;50.844;5.304;2023-07-13T05:38:06;16.20;99.90
29939;DHT22;16799;50.844;5.304;2023-07-13T05:40:32;16.10;99.90
29939;DHT22;16799;50.844;5.304;2023-07-13T05:42:57;16.10;99.90
29939;DHT22;16799;50.844;5.304;2023-07-13T05:45:23;16.30;99.90
29939;DHT22;16799;50.844;5.304;2023-07-13T05:47:49;16.30;99.90
29939;DHT22;16799;50.844;5.304;2023-07-13T05:50:14;16.30;99.90
29939;DHT22;16799;50.844;5.304;2023-07-13T05:52:40;16.50;99.90
29939;DHT22;16799;50.844;5.304;2023-07-13T05:55:06;16.50;99.90
29939;DHT22;16799;50.844;5.304;2023-07-13T05:57:32;16.50;99.90
29939;DHT22;16799;50.844;5.304;2023-07-13T05:59:57;16.50;99.90
29939;DHT22;16799;50.844;5.304;2023-07-13T06:02:23;16.60;99.90
29939;DHT22;16799;50.844;5.304;2023-07-13T06:04:48;16.70;99.90
29939;DHT22;16799;50.844;5.304;2023-07-13T06:07:15;16.70;99.90
29939;DHT22;16799;50.844;5.304;2023-07-13T06:09:40;16.70;99.90
29939;DHT22;16799;50.844;5.304;2023-07-13T06:12:06;16.70;99.90
29939;DHT22;16799;50.844;5.304;2023-07-13T06:14:32;16.90;99.90
29939;DHT22;16799;50.844;5.304;2023-07-13T06:16:58;17.00;99.90
29939;DHT22;16799;50.844;5.304;2023-07-13T06:19:23;17.00;99.90
29939;DHT22;16799;50.844;5.304;2023-07-13T06:21:49;17.00;99.90
29939;DHT22;16799;50.844;5.304;2023-07-13T06:24:15;17.10;99.90
29939;DHT22;16799;50.844;5.304;2023-07-13T06:26:40;17.20;99.90
29939;DHT22;16799;50.844;5.304;2023-07-13T06:29:06;17.20;99.90
29939;DHT22;16799;50.844;5.304;2023-07-13T06:31:31;17.30;99.90
29939;DHT22;16799;50.844;5.304;2023-07-13T06:33:57;17.20;99.90
29939;DHT22;16799;50.844;5.304;2023-07-13T06:36:23;17.30;99.90
29939;DHT22;16799;50.844;5.304;2023-07-13T06:38:48;17.40;99.90
29939;DHT22;16799;50.844;5.304;2023-07-13T06:41:14;17.40;99.90
29939;DHT22;16799;50.844;5.304;2023-07-13T06:43:40;17.50;99.90
29939;DHT22;16799;50.844;5.304;2023-07-13T06:46:05;17.60;99.90
29939;DHT22;16799;50.844;5.304;2023-07-13T06:48:31;17.60;99.90
29939;DHT22;16799;50.844;5.304;2023-07-13T06:50:57;17.60;99.90
29939;DHT22;16799;50.844;5.304;2023-07-13T06:53:23;17.70;99.90
29939;DHT22;16799;50.844;5.304;2023-07-13T06:55:48;17.80;99.90
29939;DHT22;16799;50.844;5.304;2023-07-13T06:58:16;17.90;99.90
29939;DHT22;16799;50.844;5.304;2023-07-13T07:00:42;17.80;99.90
29939;DHT22;16799;50.844;5.304;2023-07-13T07:03:08;17.70;99.90
29939;DHT22;16799;50.844;5.304;2023-07-13T07:05:34;17.60;99.90
29939;DHT22;16799;50.844;5.304;2023-07-13T07:07:59;17.50;99.90
29939;DHT22;16799;50.844;5.304;2023-07-13T07:10:26;17.50;99.90
29939;DHT22;16799;50.844;5.304;2023-07-13T07:12:51;17.60;99.90
29939;DHT22;16799;50.844;5.304;2023-07-13T07:15:18;17.60;99.90
29939;DHT22;16799;50.844;5.304;2023-07-13T07:17:44;17.50;99.90
29939;DHT22;16799;50.844;5.304;2023-07-13T07:20:10;17.50;99.90
29939;DHT22;16799;50.844;5.304;2023-07-13T07:22:36;17.50;99.90
29939;DHT22;16799;50.844;5.304;2023-07-13T07:25:01;17.50;99.90
29939;DHT22;16799;50.844;5.304;2023-07-13T07:27:27;17.50;99.90
29939;DHT22;16799;50.844;5.304;2023-07-13T07:29:53;17.60;99.90
29939;DHT22;16799;50.844;5.304;2023-07-13T07:32:19;17.80;99.90
29939;DHT22;16799;50.844;5.304;2023-07-13T07:34:46;18.10;99.90
29939;DHT22;16799;50.844;5.304;2023-07-13T07:37:13;18.30;99.90
29939;DHT22;16799;50.844;5.304;2023-07-13T07:39:39;18.50;99.90
29939;DHT22;16799;50.844;5.304;2023-07-13T07:42:05;18.60;99.90
29939;DHT22;16799;50.844;5.304;2023-07-13T07:44:31;18.60;99.90
29939;DHT22;16799;50.844;5.304;2023-07-13T07:46:57;18.50;99.90
29939;DHT22;16799;50.844;5.304;2023-07-13T07:49:23;18.60;99.90
29939;DHT22;16799;50.844;5.304;2023-07-13T07:51:48;18.70;99.90
29939;DHT22;16799;50.844;5.304;2023-07-13T07:54:14;18.80;99.90
29939;DHT22;16799;50.844;5.304;2023-07-13T07:56:40;18.70;99.90
29939;DHT22;16799;50.844;5.304;2023-07-13T07:59:06;18.80;99.90
29939;DHT22;16799;50.844;5.304;2023-07-13T08:01:32;18.80;99.90
29939;DHT22;16799;50.844;5.304;2023-07-13T08:03:57;18.70;99.90
29939;DHT22;16799;50.844;5.304;2023-07-13T08:06:23;18.90;99.90
29939;DHT22;16799;50.844;5.304;2023-07-13T08:08:49;19.10;99.90
29939;DHT22;16799;50.844;5.304;2023-07-13T08:11:15;19.20;99.90
29939;DHT22;16799;50.844;5.304;2023-07-13T08:13:40;19.30;99.90
29939;DHT22;16799;50.844;5.304;2023-07-13T08:16:06;19.50;99.90
29939;DHT22;16799;50.844;5.304;2023-07-13T08:18:32;19.40;99.90
29939;DHT22;16799;50.844;5.304;2023-07-13T08:20:58;19.60;99.90
29939;DHT22;16799;50.844;5.304;2023-07-13T08:23:25;19.80;99.90
29939;DHT22;16799;50.844;5.304;2023-07-13T08:25:54;19.90;99.90
29939;DHT22;16799;50.844;5.304;2023-07-13T08:28:23;20.00;99.90
29939;DHT22;16799;50.844;5.304;2023-07-13T08:30:49;20.00;99.90
29939;DHT22;16799;50.844;5.304;2023-07-13T08:33:19;20.30;99.90
29939;DHT22;16799;50.844;5.304;2023-07-13T08:35:48;20.60;99.90
29939;DHT22;16799;50.844;5.304;2023-07-13T08:38:16;20.40;99.90
29939;DHT22;16799;50.844;5.304;2023-07-13T08:40:42;20.30;99.90
29939;DHT22;16799;50.844;5.304;2023-07-13T08:43:23;20.00;99.90
29939;DHT22;16799;50.844;5.304;2023-07-13T08:45:54;20.10;99.90
29939;DHT22;16799;50.844;5.304;2023-07-13T08:48:34;20.50;99.90
29939;DHT22;16799;50.844;5.304;2023-07-13T08:53:49;21.00;99.90
29939;DHT22;16799;50.844;5.304;2023-07-13T08:56:22;20.70;99.90
29939;DHT22;16799;50.844;5.304;2023-07-13T08:58:51;20.60;99.90
29939;DHT22;16799;50.844;5.304;2023-07-13T09:01:22;20.70;99.90
29939;DHT22;16799;50.844;5.304;2023-07-13T09:03:53;20.70;99.90
29939;DHT22;16799;50.844;5.304;2023-07-13T09:06:23;20.50;99.90
29939;DHT22;16799;50.844;5.304;2023-07-13T09:09:15;20.50;99.90
29939;DHT22;16799;50.844;5.304;2023-07-13T09:14:26;20.80;99.90
29939;DHT22;16799;50.844;5.304;2023-07-13T09:16:56;20.80;99.90
29939;DHT22;16799;50.844;5.304;2023-07-13T09:19:27;20.80;99.90
29939;DHT22;16799;50.844;5.304;2023-07-13T09:21:55;20.90;99.90
29939;DHT22;16799;50.844;5.304;2023-07-13T09:24:37;20.80;99.90
29939;DHT22;16799;50.844;5.304;2023-07-13T09:27:20;21.00;99.90
29939;DHT22;16799;50.844;5.304;2023-07-13T09:32:48;21.80;99.90
29939;DHT22;16799;50.844;5.304;2023-07-13T09:35:19;21.40;99.90
29939;DHT22;16799;50.844;5.304;2023-07-13T09:37:46;21.40;99.90
29939;DHT22;16799;50.844;5.304;2023-07-13T09:40:22;21.60;99.90
29939;DHT22;16799;50.844;5.304;2023-07-13T09:42:52;21.80;99.90
29939;DHT22;16799;50.844;5.304;2023-07-13T09:45:27;22.10;99.90
29939;DHT22;16799;50.844;5.304;2023-07-13T09:48:00;22.60;99.90
29939;DHT22;16799;50.844;5.304;2023-07-13T09:50:29;22.50;99.90
29939;DHT22;16799;50.844;5.304;2023-07-13T09:52:55;22.10;99.90
29939;DHT22;16799;50.844;5.304;2023-07-13T09:57:52;22.20;99.90
29939;DHT22;16799;50.844;5.304;2023-07-13T10:00:27;22.20;99.90
29939;DHT22;16799;50.844;5.304;2023-07-13T10:03:09;22.30;99.90
29939;DHT22;16799;50.844;5.304;2023-07-13T10:05:41;22.40;99.90
29939;DHT22;16799;50.844;5.304;2023-07-13T10:08:21;22.50;99.90
29939;DHT22;16799;50.844;5.304;2023-07-13T10:10:53;22.50;99.90
29939;DHT22;16799;50.844;5.304;2023-07-13T10:13:45;22.40;99.90
29939;DHT22;16799;50.844;5.304;2023-07-13T10:16:11;22.10;99.90
29939;DHT22;16799;50.844;5.304;2023-07-13T10:18:46;22.30;99.90
29939;DHT22;16799;50.844;5.304;2023-07-13T10:21:22;22.70;99.90
29939;DHT22;16799;50.844;5.304;2023-07-13T10:23:56;23.00;99.70
29939;DHT22;16799;50.844;5.304;2023-07-13T10:26:31;23.40;99.90
29939;DHT22;16799;50.844;5.304;2023-07-13T10:29:09;23.60;96.60
29939;DHT22;16799;50.844;5.304;2023-07-13T10:31:38;23.60;96.90
29939;DHT22;16799;50.844;5.304;2023-07-13T10:34:04;22.90;97.90
29939;DHT22;16799;50.844;5.304;2023-07-13T10:36:42;22.70;99.90
29939;DHT22;16799;50.844;5.304;2023-07-13T10:39:24;23.70;97.00
29939;DHT22;16799;50.844;5.304;2023-07-13T10:41:55;23.70;96.70
29939;DHT22;16799;50.844;5.304;2023-07-13T10:44:28;23.50;95.00
29939;DHT22;16799;50.844;5.304;2023-07-13T10:47:04;23.30;96.10
29939;DHT22;16799;50.844;5.304;2023-07-13T10:49:32;23.30;97.10
29939;DHT22;16799;50.844;5.304;2023-07-13T10:51:58;23.90;95.30
29939;DHT22;16799;50.844;5.304;2023-07-13T10:54:32;23.50;95.20
29939;DHT22;16799;50.844;5.304;2023-07-13T10:57:20;23.10;96.30
29939;DHT22;16799;50.844;5.304;2023-07-13T11:02:38;22.20;97.90
29939;DHT22;16799;50.844;5.304;2023-07-13T11:05:42;22.00;98.70
29939;DHT22;16799;50.844;5.304;2023-07-13T11:08:32;22.30;98.90
29939;DHT22;16799;50.844;5.304;2023-07-13T11:10:58;23.30;97.60
29939;DHT22;16799;50.844;5.304;2023-07-13T11:13:55;23.90;94.30
29939;DHT22;16799;50.844;5.304;2023-07-13T11:18:51;22.40;97.00
29939;DHT22;16799;50.844;5.304;2023-07-13T11:21:23;22.10;98.30
29939;DHT22;16799;50.844;5.304;2023-07-13T11:24:12;22.10;97.90
29939;DHT22;16799;50.844;5.304;2023-07-13T11:31:54;24.30;92.70
29939;DHT22;16799;50.844;5.304;2023-07-13T11:34:33;25.20;91.00
29939;DHT22;16799;50.844;5.304;2023-07-13T11:37:01;26.20;85.70
29939;DHT22;16799;50.844;5.304;2023-07-13T11:39:31;25.20;86.90
29939;DHT22;16799;50.844;5.304;2023-07-13T11:42:00;24.50;90.20
29939;DHT22;16799;50.844;5.304;2023-07-13T11:44:29;25.30;89.60
29939;DHT22;16799;50.844;5.304;2023-07-13T11:47:00;26.20;83.80
29939;DHT22;16799;50.844;5.304;2023-07-13T11:49:42;26.00;82.60
29939;DHT22;16799;50.844;5.304;2023-07-13T11:52:17;26.30;82.20
29939;DHT22;16799;50.844;5.304;2023-07-13T11:54:49;26.90;79.60
29939;DHT22;16799;50.844;5.304;2023-07-13T11:57:32;27.20;78.20
29939;DHT22;16799;50.844;5.304;2023-07-13T12:00:02;27.80;77.50
29939;DHT22;16799;50.844;5.304;2023-07-13T12:02:40;27.70;75.20
29939;DHT22;16799;50.844;5.304;2023-07-13T12:05:11;27.30;73.60
29939;DHT22;16799;50.844;5.304;2023-07-13T12:07:38;27.00;76.30
29939;DHT22;16799;50.844;5.304;2023-07-13T12:10:29;25.90;77.90
29939;DHT22;16799;50.844;5.304;2023-07-13T12:13:00;25.80;81.20
29939;DHT22;16799;50.844;5.304;2023-07-13T12:15:45;26.50;73.80
29939;DHT22;16799;50.844;5.304;2023-07-13T12:18:29;27.50;72.60
29939;DHT22;16799;50.844;5.304;2023-07-13T12:20:57;27.70;71.30
29939;DHT22;16799;50.844;5.304;2023-07-13T12:23:29;25.90;75.00
29939;DHT22;16799;50.844;5.304;2023-07-13T12:25:57;25.40;78.30
29939;DHT22;16799;50.844;5.304;2023-07-13T12:30:58;26.50;76.70
29939;DHT22;16799;50.844;5.304;2023-07-13T12:33:27;27.40;73.70
29939;DHT22;16799;50.844;5.304;2023-07-13T12:35:53;28.50;72.90
29939;DHT22;16799;50.844;5.304;2023-07-13T12:38:19;28.50;67.20
29939;DHT22;16799;50.844;5.304;2023-07-13T12:40:49;28.00;66.70
29939;DHT22;16799;50.844;5.304;2023-07-13T12:43:16;28.00;69.60
29939;DHT22;16799;50.844;5.304;2023-07-13T12:46:02;29.10;67.00
29939;DHT22;16799;50.844;5.304;2023-07-13T12:48:28;28.70;64.50
29939;DHT22;16799;50.844;5.304;2023-07-13T12:50:55;28.30;67.00
29939;DHT22;16799;50.844;5.304;2023-07-13T12:53:41;27.90;67.70
29939;DHT22;16799;50.844;5.304;2023-07-13T12:56:15;27.70;67.00
29939;DHT22;16799;50.844;5.304;2023-07-13T12:58:43;28.00;67.20
29939;DHT22;16799;50.844;5.304;2023-07-13T13:01:11;26.70;67.20
29939;DHT22;16799;50.844;5.304;2023-07-13T13:03:54;26.00;72.40
29939;DHT22;16799;50.844;5.304;2023-07-13T13:06:28;25.80;74.50
29939;DHT22;16799;50.844;5.304;2023-07-13T13:08:58;24.60;76.10
29939;DHT22;16799;50.844;5.304;2023-07-13T13:11:26;24.30;77.90
29939;DHT22;16799;50.844;5.304;2023-07-13T13:13:52;24.50;78.20
29939;DHT22;16799;50.844;5.304;2023-07-13T13:16:42;24.60;79.20
29939;DHT22;16799;50.844;5.304;2023-07-13T13:19:20;24.70;77.70
29939;DHT22;16799;50.844;5.304;2023-07-13T13:21:47;24.50;79.40
29939;DHT22;16799;50.844;5.304;2023-07-13T13:24:17;24.40;78.50
29939;DHT22;16799;50.844;5.304;2023-07-13T13:26:45;23.90;78.40
29939;DHT22;16799;50.844;5.304;2023-07-13T13:29:17;23.60;80.80
29939;DHT22;16799;50.844;5.304;2023-07-13T13:31:44;23.50;83.00
29939;DHT22;16799;50.844;5.304;2023-07-13T13:34:11;23.20;84.50
29939;DHT22;16799;50.844;5.304;2023-07-13T13:36:37;22.90;87.40
29939;DHT22;16799;50.844;5.304;2023-07-13T13:39:18;22.60;89.00
29939;DHT22;16799;50.844;5.304;2023-07-13T13:41:44;22.50;90.40
29939;DHT22;16799;50.844;5.304;2023-07-13T13:44:10;22.40;90.90
29939;DHT22;16799;50.844;5.304;2023-07-13T13:46:36;22.30;93.90
29939;DHT22;16799;50.844;5.304;2023-07-13T13:49:02;21.90;99.60
29939;DHT22;16799;50.844;5.304;2023-07-13T13:51:28;21.80;99.90
29939;DHT22;16799;50.844;5.304;2023-07-13T13:53:54;21.40;99.90
29939;DHT22;16799;50.844;5.304;2023-07-13T13:56:20;21.50;99.90
29939;DHT22;16799;50.844;5.304;2023-07-13T13:58:46;21.50;99.90
29939;DHT22;16799;50.844;5.304;2023-07-13T14:01:16;21.60;99.90
29939;DHT22;16799;50.844;5.304;2023-07-13T14:03:43;21.70;99.90
29939;DHT22;16799;50.844;5.304;2023-07-13T14:06:13;21.90;99.90
29939;DHT22;16799;50.844;5.304;2023-07-13T14:08:38;22.10;99.90
29939;DHT22;16799;50.844;5.304;2023-07-13T14:11:04;22.10;99.90
29939;DHT22;16799;50.844;5.304;2023-07-13T14:13:41;22.20;99.90
29939;DHT22;16799;50.844;5.304;2023-07-13T14:16:17;22.30;99.90
29939;DHT22;16799;50.844;5.304;2023-07-13T14:18:47;22.20;99.90
29939;DHT22;16799;50.844;5.304;2023-07-13T14:21:22;22.40;99.90
29939;DHT22;16799;50.844;5.304;2023-07-13T14:23:49;22.40;99.90
29939;DHT22;16799;50.844;5.304;2023-07-13T14:26:21;22.50;99.90
29939;DHT22;16799;50.844;5.304;2023-07-13T14:28:49;22.30;99.90
29939;DHT22;16799;50.844;5.304;2023-07-13T14:31:16;22.00;99.90
29939;DHT22;16799;50.844;5.304;2023-07-13T14:33:43;21.90;99.90
29939;DHT22;16799;50.844;5.304;2023-07-13T14:36:21;22.10;99.90
29939;DHT22;16799;50.844;5.304;2023-07-13T14:38:48;22.60;99.90
29939;DHT22;16799;50.844;5.304;2023-07-13T14:41:15;23.60;99.90
29939;DHT22;16799;50.844;5.304;2023-07-13T14:43:40;23.80;96.60
29939;DHT22;16799;50.844;5.304;2023-07-13T14:46:16;23.40;97.40
29939;DHT22;16799;50.844;5.304;2023-07-13T14:48:43;22.80;99.90
29939;DHT22;16799;50.844;5.304;2023-07-13T14:51:09;22.80;99.90
29939;DHT22;16799;50.844;5.304;2023-07-13T14:53:35;22.90;98.00
29939;DHT22;16799;50.844;5.304;2023-07-13T14:56:12;22.80;97.40
29939;DHT22;16799;50.844;5.304;2023-07-13T14:58:37;23.20;97.50
29939;DHT22;16799;50.844;5.304;2023-07-13T15:01:13;22.90;96.40
29939;DHT22;16799;50.844;5.304;2023-07-13T15:03:44;23.00;97.90
29939;DHT22;16799;50.844;5.304;2023-07-13T15:06:12;23.80;96.50
29939;DHT22;16799;50.844;5.304;2023-07-13T15:08:38;25.30;91.80
29939;DHT22;16799;50.844;5.304;2023-07-13T15:11:07;26.90;85.20
29939;DHT22;16799;50.844;5.304;2023-07-13T15:13:33;28.40;79.80
29939;DHT22;16799;50.844;5.304;2023-07-13T15:15:59;27.80;76.20
29939;DHT22;16799;50.844;5.304;2023-07-13T15:18:25;27.20;79.10
29939;DHT22;16799;50.844;5.304;2023-07-13T15:20:52;27.00;78.30
29939;DHT22;16799;50.844;5.304;2023-07-13T15:23:21;26.60;79.50
29939;DHT22;16799;50.844;5.304;2023-07-13T15:25:48;26.80;80.50
29939;DHT22;16799;50.844;5.304;2023-07-13T15:28:15;27.40;77.40
29939;DHT22;16799;50.844;5.304;2023-07-13T15:35:42;29.40;73.70
29939;DHT22;16799;50.844;5.304;2023-07-13T15:38:25;29.10;70.90
29939;DHT22;16799;50.844;5.304;2023-07-13T15:40:52;27.90;74.90
29939;DHT22;16799;50.844;5.304;2023-07-13T15:43:18;28.50;72.50
29939;DHT22;16799;50.844;5.304;2023-07-13T15:45:45;29.40;70.60
29939;DHT22;16799;50.844;5.304;2023-07-13T15:48:19;29.50;70.30
29939;DHT22;16799;50.844;5.304;2023-07-13T15:50:56;29.40;68.40
29939;DHT22;16799;50.844;5.304;2023-07-13T15:53:29;28.30;69.10
29939;DHT22;16799;50.844;5.304;2023-07-13T15:55:55;27.70;69.20
29939;DHT22;16799;50.844;5.304;2023-07-13T15:58:21;27.80;71.10
29939;DHT22;16799;50.844;5.304;2023-07-13T16:00:48;27.40;71.50
29939;DHT22;16799;50.844;5.304;2023-07-13T16:03:19;26.90;72.50
29939;DHT22;16799;50.844;5.304;2023-07-13T16:05:45;25.40;74.70
29939;DHT22;16799;50.844;5.304;2023-07-13T16:08:26;24.40;80.00
29939;DHT22;16799;50.844;5.304;2023-07-13T16:10:53;24.00;82.40
29939;DHT22;16799;50.844;5.304;2023-07-13T16:13:20;23.70;85.00